sensor_id;sensor_type;location;lat;lon;timestamp;P1;durP1;ratioP1;P2;durP2;ratioP2
40945;SDS011;55635;50.264;11.918;2024-01-06T00:00:09;23.52;;;11.50;;
40945;SDS011;55635;50.264;11.918;2024-01-06T00:02:54;15.52;;;10.55;;
40945;SDS011;55635;50.264;11.918;2024-01-06T00:05:34;20.67;;;11.50;;
40945;SDS011;55635;50.264;11.918;2024-01-06T00:08:16;18.30;;;11.23;;
40945;SDS011;55635;50.264;11.918;2024-01-06T00:10:57;19.80;;;12.43;;
40945;SDS011;55635;50.264;11.918;2024-01-06T00:13:38;21.90;;;12.25;;
40945;SDS011;55635;50.264;11.918;2024-01-06T00:16:20;21.73;;;11.50;;
40945;SDS011;55635;50.264;11.918;2024-01-06T00:19:01;23.25;;;11.30;;
40945;SDS011;55635;50.264;11.918;2024-01-06T00:21:42;15.60;;;9.32;;
40945;SDS011;55635;50.264;11.918;2024-01-06T00:24:23;18.40;;;9.02;;
40945;SDS011;55635;50.264;11.918;2024-01-06T00:27:05;13.48;;;8.07;;
40945;SDS011;55635;50.264;11.918;2024-01-06T00:29:45;12.45;;;8.10;;
40945;SDS011;55635;50.264;11.918;2024-01-06T00:32:27;14.80;;;8.68;;
40945;SDS011;55635;50.264;11.918;2024-01-06T00:35:09;14.40;;;8.02;;
40945;SDS011;55635;50.264;11.918;2024-01-06T00:37:50;15.10;;;8.43;;
40945;SDS011;55635;50.264;11.918;2024-01-06T00:40:31;14.35;;;8.50;;
40945;SDS011;55635;50.264;11.918;2024-01-06T00:43:12;15.43;;;8.43;;
40945;SDS011;55635;50.264;11.918;2024-01-06T00:45:53;20.77;;;8.05;;
40945;SDS011;55635;50.264;11.918;2024-01-06T00:48:35;11.95;;;8.02;;
40945;SDS011;55635;50.264;11.918;2024-01-06T00:51:16;14.48;;;8.23;;
40945;SDS011;55635;50.264;11.918;2024-01-06T00:53:57;12.48;;;7.47;;
40945;SDS011;55635;50.264;11.918;2024-01-06T00:56:38;14.20;;;8.27;;
40945;SDS011;55635;50.264;11.918;2024-01-06T00:59:19;13.90;;;8.07;;
40945;SDS011;55635;50.264;11.918;2024-01-06T01:02:00;11.05;;;7.50;;
40945;SDS011;55635;50.264;11.918;2024-01-06T01:04:41;14.20;;;7.32;;
40945;SDS011;55635;50.264;11.918;2024-01-06T01:07:22;11.65;;;7.82;;
40945;SDS011;55635;50.264;11.918;2024-01-06T01:10:04;12.45;;;7.53;;
40945;SDS011;55635;50.264;11.918;2024-01-06T01:12:46;8.27;;;5.95;;
40945;SDS011;55635;50.264;11.918;2024-01-06T01:15:26;11.55;;;7.38;;
40945;SDS011;55635;50.264;11.918;2024-01-06T01:18:07;14.77;;;8.15;;
40945;SDS011;55635;50.264;11.918;2024-01-06T01:20:48;17.48;;;7.53;;
40945;SDS011;55635;50.264;11.918;2024-01-06T01:23:29;14.77;;;8.45;;
40945;SDS011;55635;50.264;11.918;2024-01-06T01:26:10;14.13;;;7.43;;
40945;SDS011;55635;50.264;11.918;2024-01-06T01:28:52;10.82;;;7.40;;
40945;SDS011;55635;50.264;11.918;2024-01-06T01:31:33;14.52;;;7.90;;
40945;SDS011;55635;50.264;11.918;2024-01-06T01:34:14;13.25;;;7.55;;
40945;SDS011;55635;50.264;11.918;2024-01-06T01:36:55;13.75;;;8.07;;
40945;SDS011;55635;50.264;11.918;2024-01-06T01:39:36;11.48;;;6.82;;
40945;SDS011;55635;50.264;11.918;2024-01-06T01:42:17;12.57;;;7.45;;
40945;SDS011;55635;50.264;11.918;2024-01-06T01:44:59;16.08;;;8.15;;
40945;SDS011;55635;50.264;11.918;2024-01-06T01:47:40;13.38;;;8.30;;
40945;SDS011;55635;50.264;11.918;2024-01-06T01:50:21;11.77;;;7.90;;
40945;SDS011;55635;50.264;11.918;2024-01-06T01:53:03;11.95;;;7.88;;
40945;SDS011;55635;50.264;11.918;2024-01-06T01:55:44;16.95;;;8.93;;
40945;SDS011;55635;50.264;11.918;2024-01-06T01:58:27;11.30;;;8.15;;
40945;SDS011;55635;50.264;11.918;2024-01-06T02:01:08;15.57;;;8.35;;
40945;SDS011;55635;50.264;11.918;2024-01-06T02:03:49;12.80;;;7.72;;
40945;SDS011;55635;50.264;11.918;2024-01-06T02:06:30;12.45;;;7.75;;
40945;SDS011;55635;50.264;11.918;2024-01-06T02:09:11;12.00;;;7.47;;
40945;SDS011;55635;50.264;11.918;2024-01-06T02:11:53;10.52;;;7.20;;
40945;SDS011;55635;50.264;11.918;2024-01-06T02:14:33;11.82;;;8.10;;
40945;SDS011;55635;50.264;11.918;2024-01-06T02:17:15;12.38;;;8.07;;
40945;SDS011;55635;50.264;11.918;2024-01-06T02:19:56;12.20;;;8.68;;
40945;SDS011;55635;50.264;11.918;2024-01-06T02:22:37;10.75;;;7.07;;
40945;SDS011;55635;50.264;11.918;2024-01-06T02:25:18;15.68;;;7.68;;
40945;SDS011;55635;50.264;11.918;2024-01-06T02:27:59;10.48;;;7.82;;
40945;SDS011;55635;50.264;11.918;2024-01-06T02:30:40;12.98;;;7.95;;
40945;SDS011;55635;50.264;11.918;2024-01-06T02:33:21;13.98;;;8.40;;
40945;SDS011;55635;50.264;11.918;2024-01-06T02:36:04;16.05;;;7.93;;
40945;SDS011;55635;50.264;11.918;2024-01-06T02:38:45;13.77;;;8.38;;
40945;SDS011;55635;50.264;11.918;2024-01-06T02:41:27;14.45;;;8.48;;
40945;SDS011;55635;50.264;11.918;2024-01-06T02:44:07;12.77;;;7.97;;
40945;SDS011;55635;50.264;11.918;2024-01-06T02:46:48;17.23;;;8.57;;
40945;SDS011;55635;50.264;11.918;2024-01-06T02:49:30;17.52;;;8.68;;
40945;SDS011;55635;50.264;11.918;2024-01-06T02:52:11;14.25;;;8.45;;
40945;SDS011;55635;50.264;11.918;2024-01-06T02:54:52;24.27;;;11.43;;
40945;SDS011;55635;50.264;11.918;2024-01-06T02:57:33;17.10;;;9.93;;
40945;SDS011;55635;50.264;11.918;2024-01-06T03:00:14;16.08;;;9.48;;
40945;SDS011;55635;50.264;11.918;2024-01-06T03:02:55;16.10;;;8.32;;
40945;SDS011;55635;50.264;11.918;2024-01-06T03:05:36;13.77;;;8.60;;
40945;SDS011;55635;50.264;11.918;2024-01-06T03:08:18;17.35;;;9.23;;
40945;SDS011;55635;50.264;11.918;2024-01-06T03:10:59;14.00;;;8.73;;
40945;SDS011;55635;50.264;11.918;2024-01-06T03:13:40;13.80;;;8.15;;
40945;SDS011;55635;50.264;11.918;2024-01-06T03:16:21;16.20;;;8.43;;
40945;SDS011;55635;50.264;11.918;2024-01-06T03:19:02;14.35;;;8.15;;
40945;SDS011;55635;50.264;11.918;2024-01-06T03:21:43;9.23;;;7.32;;
40945;SDS011;55635;50.264;11.918;2024-01-06T03:24:25;11.80;;;7.53;;
40945;SDS011;55635;50.264;11.918;2024-01-06T03:27:07;13.15;;;7.97;;
40945;SDS011;55635;50.264;11.918;2024-01-06T03:29:49;15.15;;;7.57;;
40945;SDS011;55635;50.264;11.918;2024-01-06T03:32:30;14.82;;;8.02;;
40945;SDS011;55635;50.264;11.918;2024-01-06T03:35:11;9.98;;;7.03;;
40945;SDS011;55635;50.264;11.918;2024-01-06T03:37:52;12.50;;;6.70;;
40945;SDS011;55635;50.264;11.918;2024-01-06T03:40:33;12.18;;;7.45;;
40945;SDS011;55635;50.264;11.918;2024-01-06T03:43:14;15.00;;;7.85;;
40945;SDS011;55635;50.264;11.918;2024-01-06T03:45:55;9.88;;;6.40;;
40945;SDS011;55635;50.264;11.918;2024-01-06T03:48:37;14.73;;;8.15;;
40945;SDS011;55635;50.264;11.918;2024-01-06T03:51:19;11.10;;;7.32;;
40945;SDS011;55635;50.264;11.918;2024-01-06T03:54:01;13.25;;;8.52;;
40945;SDS011;55635;50.264;11.918;2024-01-06T03:56:42;16.02;;;8.52;;
40945;SDS011;55635;50.264;11.918;2024-01-06T03:59:23;10.23;;;8.02;;
40945;SDS011;55635;50.264;11.918;2024-01-06T04:02:04;11.70;;;7.65;;
40945;SDS011;55635;50.264;11.918;2024-01-06T04:04:45;15.23;;;7.50;;
40945;SDS011;55635;50.264;11.918;2024-01-06T04:07:26;10.98;;;6.68;;
40945;SDS011;55635;50.264;11.918;2024-01-06T04:10:07;10.07;;;7.13;;
40945;SDS011;55635;50.264;11.918;2024-01-06T04:12:49;11.10;;;7.50;;
40945;SDS011;55635;50.264;11.918;2024-01-06T04:15:30;13.23;;;7.05;;
40945;SDS011;55635;50.264;11.918;2024-01-06T04:18:11;13.10;;;8.23;;
40945;SDS011;55635;50.264;11.918;2024-01-06T04:20:52;11.25;;;6.82;;
40945;SDS011;55635;50.264;11.918;2024-01-06T04:23:33;11.55;;;7.38;;
40945;SDS011;55635;50.264;11.918;2024-01-06T04:26:14;13.80;;;7.72;;
40945;SDS011;55635;50.264;11.918;2024-01-06T04:28:55;14.20;;;8.13;;
40945;SDS011;55635;50.264;11.918;2024-01-06T04:31:36;16.75;;;7.70;;
40945;SDS011;55635;50.264;11.918;2024-01-06T04:34:17;12.05;;;7.50;;
40945;SDS011;55635;50.264;11.918;2024-01-06T04:36:58;14.45;;;7.93;;
40945;SDS011;55635;50.264;11.918;2024-01-06T04:39:39;20.08;;;9.23;;
40945;SDS011;55635;50.264;11.918;2024-01-06T04:42:20;15.88;;;8.32;;
40945;SDS011;55635;50.264;11.918;2024-01-06T04:45:02;16.30;;;7.80;;
40945;SDS011;55635;50.264;11.918;2024-01-06T04:47:44;10.95;;;7.40;;
40945;SDS011;55635;50.264;11.918;2024-01-06T04:50:26;16.10;;;7.82;;
40945;SDS011;55635;50.264;11.918;2024-01-06T04:53:06;14.55;;;8.32;;
40945;SDS011;55635;50.264;11.918;2024-01-06T04:55:48;12.88;;;7.32;;
40945;SDS011;55635;50.264;11.918;2024-01-06T04:58:29;13.73;;;7.13;;
40945;SDS011;55635;50.264;11.918;2024-01-06T05:01:10;14.13;;;8.23;;
40945;SDS011;55635;50.264;11.918;2024-01-06T05:03:52;12.20;;;7.50;;
40945;SDS011;55635;50.264;11.918;2024-01-06T05:06:32;10.25;;;6.95;;
40945;SDS011;55635;50.264;11.918;2024-01-06T05:09:14;15.50;;;8.52;;
40945;SDS011;55635;50.264;11.918;2024-01-06T05:11:55;15.43;;;8.20;;
40945;SDS011;55635;50.264;11.918;2024-01-06T05:14:36;9.48;;;7.45;;
40945;SDS011;55635;50.264;11.918;2024-01-06T05:17:17;15.07;;;8.02;;
40945;SDS011;55635;50.264;11.918;2024-01-06T05:19:59;10.65;;;6.47;;
40945;SDS011;55635;50.264;11.918;2024-01-06T05:22:40;12.50;;;7.60;;
40945;SDS011;55635;50.264;11.918;2024-01-06T05:25:21;12.32;;;7.88;;
40945;SDS011;55635;50.264;11.918;2024-01-06T05:28:02;15.55;;;9.20;;
40945;SDS011;55635;50.264;11.918;2024-01-06T05:30:44;14.82;;;8.80;;
40945;SDS011;55635;50.264;11.918;2024-01-06T05:33:25;44.30;;;25.25;;
40945;SDS011;55635;50.264;11.918;2024-01-06T05:36:06;15.18;;;10.35;;
40945;SDS011;55635;50.264;11.918;2024-01-06T05:38:47;18.02;;;9.70;;
40945;SDS011;55635;50.264;11.918;2024-01-06T05:41:28;17.65;;;9.15;;
40945;SDS011;55635;50.264;11.918;2024-01-06T05:44:09;14.68;;;8.93;;
40945;SDS011;55635;50.264;11.918;2024-01-06T05:46:51;15.98;;;9.10;;
40945;SDS011;55635;50.264;11.918;2024-01-06T05:49:32;15.13;;;8.48;;
40945;SDS011;55635;50.264;11.918;2024-01-06T05:52:13;17.98;;;9.30;;
40945;SDS011;55635;50.264;11.918;2024-01-06T05:54:55;14.35;;;8.75;;
40945;SDS011;55635;50.264;11.918;2024-01-06T05:57:36;16.75;;;9.95;;
40945;SDS011;55635;50.264;11.918;2024-01-06T06:00:17;18.65;;;9.23;;
40945;SDS011;55635;50.264;11.918;2024-01-06T06:02:58;11.48;;;7.88;;
40945;SDS011;55635;50.264;11.918;2024-01-06T06:05:39;17.50;;;8.38;;
40945;SDS011;55635;50.264;11.918;2024-01-06T06:08:20;13.63;;;8.57;;
40945;SDS011;55635;50.264;11.918;2024-01-06T06:11:01;15.85;;;8.00;;
40945;SDS011;55635;50.264;11.918;2024-01-06T06:13:45;11.10;;;6.65;;
40945;SDS011;55635;50.264;11.918;2024-01-06T06:16:26;15.48;;;8.63;;
40945;SDS011;55635;50.264;11.918;2024-01-06T06:19:06;12.23;;;7.53;;
40945;SDS011;55635;50.264;11.918;2024-01-06T06:21:48;23.98;;;10.93;;
40945;SDS011;55635;50.264;11.918;2024-01-06T06:24:28;22.02;;;10.23;;
40945;SDS011;55635;50.264;11.918;2024-01-06T06:27:10;24.27;;;10.75;;
40945;SDS011;55635;50.264;11.918;2024-01-06T06:29:51;21.83;;;10.85;;
40945;SDS011;55635;50.264;11.918;2024-01-06T06:32:33;21.38;;;11.20;;
40945;SDS011;55635;50.264;11.918;2024-01-06T06:35:14;24.60;;;10.48;;
40945;SDS011;55635;50.264;11.918;2024-01-06T06:37:55;20.00;;;10.60;;
40945;SDS011;55635;50.264;11.918;2024-01-06T06:40:36;17.27;;;7.78;;
40945;SDS011;55635;50.264;11.918;2024-01-06T06:43:17;15.95;;;7.60;;
40945;SDS011;55635;50.264;11.918;2024-01-06T06:45:58;13.40;;;8.00;;
40945;SDS011;55635;50.264;11.918;2024-01-06T06:48:39;17.05;;;9.30;;
40945;SDS011;55635;50.264;11.918;2024-01-06T06:51:20;16.23;;;8.88;;
40945;SDS011;55635;50.264;11.918;2024-01-06T06:54:05;17.65;;;9.27;;
40945;SDS011;55635;50.264;11.918;2024-01-06T06:56:46;17.17;;;8.23;;
40945;SDS011;55635;50.264;11.918;2024-01-06T06:59:27;17.65;;;8.55;;
40945;SDS011;55635;50.264;11.918;2024-01-06T07:02:09;14.50;;;9.00;;
40945;SDS011;55635;50.264;11.918;2024-01-06T07:04:50;14.27;;;8.65;;
40945;SDS011;55635;50.264;11.918;2024-01-06T07:07:31;17.33;;;8.90;;
40945;SDS011;55635;50.264;11.918;2024-01-06T07:10:12;18.10;;;8.23;;
40945;SDS011;55635;50.264;11.918;2024-01-06T07:12:53;16.40;;;8.35;;
40945;SDS011;55635;50.264;11.918;2024-01-06T07:15:34;13.32;;;7.63;;
40945;SDS011;55635;50.264;11.918;2024-01-06T07:18:16;19.35;;;8.90;;
40945;SDS011;55635;50.264;11.918;2024-01-06T07:20:59;16.15;;;9.32;;
40945;SDS011;55635;50.264;11.918;2024-01-06T07:23:40;17.48;;;9.52;;
40945;SDS011;55635;50.264;11.918;2024-01-06T07:26:22;18.02;;;9.60;;
40945;SDS011;55635;50.264;11.918;2024-01-06T07:29:03;20.90;;;8.98;;
40945;SDS011;55635;50.264;11.918;2024-01-06T07:31:44;19.77;;;10.40;;
40945;SDS011;55635;50.264;11.918;2024-01-06T07:34:25;20.67;;;9.35;;
40945;SDS011;55635;50.264;11.918;2024-01-06T07:37:06;16.67;;;8.23;;
40945;SDS011;55635;50.264;11.918;2024-01-06T07:39:47;11.23;;;6.82;;
40945;SDS011;55635;50.264;11.918;2024-01-06T07:42:28;14.90;;;6.57;;
40945;SDS011;55635;50.264;11.918;2024-01-06T07:45:09;12.20;;;6.80;;
40945;SDS011;55635;50.264;11.918;2024-01-06T07:47:50;13.00;;;7.10;;
40945;SDS011;55635;50.264;11.918;2024-01-06T07:50:32;11.55;;;7.07;;
40945;SDS011;55635;50.264;11.918;2024-01-06T07:53:12;15.77;;;8.05;;
40945;SDS011;55635;50.264;11.918;2024-01-06T07:55:54;10.85;;;6.45;;
40945;SDS011;55635;50.264;11.918;2024-01-06T07:58:35;8.55;;;5.53;;
40945;SDS011;55635;50.264;11.918;2024-01-06T08:01:16;15.15;;;7.78;;
40945;SDS011;55635;50.264;11.918;2024-01-06T08:03:58;14.75;;;8.05;;
40945;SDS011;55635;50.264;11.918;2024-01-06T08:06:39;12.60;;;7.20;;
40945;SDS011;55635;50.264;11.918;2024-01-06T08:09:20;12.63;;;7.22;;
40945;SDS011;55635;50.264;11.918;2024-01-06T08:12:03;11.68;;;7.30;;
40945;SDS011;55635;50.264;11.918;2024-01-06T08:14:45;10.90;;;7.00;;
40945;SDS011;55635;50.264;11.918;2024-01-06T08:17:26;10.35;;;5.93;;
40945;SDS011;55635;50.264;11.918;2024-01-06T08:20:07;10.30;;;5.65;;
40945;SDS011;55635;50.264;11.918;2024-01-06T08:22:49;12.65;;;5.68;;
40945;SDS011;55635;50.264;11.918;2024-01-06T08:25:30;9.48;;;6.32;;
40945;SDS011;55635;50.264;11.918;2024-01-06T08:28:11;9.57;;;5.97;;
40945;SDS011;55635;50.264;11.918;2024-01-06T08:30:54;10.23;;;6.10;;
40945;SDS011;55635;50.264;11.918;2024-01-06T08:33:36;11.23;;;6.75;;
40945;SDS011;55635;50.264;11.918;2024-01-06T08:36:16;13.57;;;6.63;;
40945;SDS011;55635;50.264;11.918;2024-01-06T08:38:58;12.70;;;6.25;;
40945;SDS011;55635;50.264;11.918;2024-01-06T08:41:39;10.63;;;6.22;;
40945;SDS011;55635;50.264;11.918;2024-01-06T08:44:20;13.27;;;6.35;;
40945;SDS011;55635;50.264;11.918;2024-01-06T08:47:01;12.38;;;5.80;;
40945;SDS011;55635;50.264;11.918;2024-01-06T08:49:43;12.13;;;5.10;;
40945;SDS011;55635;50.264;11.918;2024-01-06T08:52:23;9.52;;;4.22;;
40945;SDS011;55635;50.264;11.918;2024-01-06T08:55:05;8.48;;;4.55;;
40945;SDS011;55635;50.264;11.918;2024-01-06T08:57:46;8.02;;;5.35;;
40945;SDS011;55635;50.264;11.918;2024-01-06T09:00:27;8.63;;;5.13;;
40945;SDS011;55635;50.264;11.918;2024-01-06T09:03:08;12.70;;;5.65;;
40945;SDS011;55635;50.264;11.918;2024-01-06T09:05:50;11.18;;;5.40;;
40945;SDS011;55635;50.264;11.918;2024-01-06T09:08:37;11.43;;;5.70;;
40945;SDS011;55635;50.264;11.918;2024-01-06T09:11:19;9.15;;;6.10;;
40945;SDS011;55635;50.264;11.918;2024-01-06T09:14:00;10.50;;;5.95;;
40945;SDS011;55635;50.264;11.918;2024-01-06T09:16:41;8.38;;;5.38;;
40945;SDS011;55635;50.264;11.918;2024-01-06T09:19:22;7.47;;;5.03;;
40945;SDS011;55635;50.264;11.918;2024-01-06T09:22:04;9.05;;;5.38;;
40945;SDS011;55635;50.264;11.918;2024-01-06T09:24:45;10.15;;;4.63;;
40945;SDS011;55635;50.264;11.918;2024-01-06T09:27:26;8.07;;;4.88;;
40945;SDS011;55635;50.264;11.918;2024-01-06T09:30:07;7.82;;;5.10;;
40945;SDS011;55635;50.264;11.918;2024-01-06T09:32:49;11.00;;;5.32;;
40945;SDS011;55635;50.264;11.918;2024-01-06T09:35:30;8.55;;;4.88;;
40945;SDS011;55635;50.264;11.918;2024-01-06T09:38:11;10.38;;;4.63;;
40945;SDS011;55635;50.264;11.918;2024-01-06T09:40:52;6.32;;;5.22;;
40945;SDS011;55635;50.264;11.918;2024-01-06T09:43:33;7.00;;;4.90;;
40945;SDS011;55635;50.264;11.918;2024-01-06T09:46:17;7.43;;;4.93;;
40945;SDS011;55635;50.264;11.918;2024-01-06T09:49:06;6.22;;;4.85;;
40945;SDS011;55635;50.264;11.918;2024-01-06T09:51:49;7.88;;;5.15;;
40945;SDS011;55635;50.264;11.918;2024-01-06T09:54:32;10.65;;;5.50;;
40945;SDS011;55635;50.264;11.918;2024-01-06T09:57:17;12.05;;;5.60;;
40945;SDS011;55635;50.264;11.918;2024-01-06T09:59:59;7.13;;;5.38;;
40945;SDS011;55635;50.264;11.918;2024-01-06T10:02:41;6.88;;;5.25;;
40945;SDS011;55635;50.264;11.918;2024-01-06T10:05:23;10.02;;;4.60;;
40945;SDS011;55635;50.264;11.918;2024-01-06T10:08:04;6.65;;;5.00;;
40945;SDS011;55635;50.264;11.918;2024-01-06T10:10:46;9.02;;;5.15;;
40945;SDS011;55635;50.264;11.918;2024-01-06T10:13:28;8.85;;;5.32;;
40945;SDS011;55635;50.264;11.918;2024-01-06T10:16:09;8.68;;;5.18;;
40945;SDS011;55635;50.264;11.918;2024-01-06T10:18:50;9.13;;;4.80;;
40945;SDS011;55635;50.264;11.918;2024-01-06T10:21:32;10.23;;;4.85;;
40945;SDS011;55635;50.264;11.918;2024-01-06T10:24:13;12.65;;;5.45;;
40945;SDS011;55635;50.264;11.918;2024-01-06T10:26:54;8.30;;;5.25;;
40945;SDS011;55635;50.264;11.918;2024-01-06T10:29:36;7.85;;;4.30;;
40945;SDS011;55635;50.264;11.918;2024-01-06T10:32:17;9.48;;;4.90;;
40945;SDS011;55635;50.264;11.918;2024-01-06T10:34:59;8.65;;;5.05;;
40945;SDS011;55635;50.264;11.918;2024-01-06T10:37:44;7.45;;;4.60;;
40945;SDS011;55635;50.264;11.918;2024-01-06T10:40:25;10.88;;;4.75;;
40945;SDS011;55635;50.264;11.918;2024-01-06T10:43:07;6.13;;;5.13;;
40945;SDS011;55635;50.264;11.918;2024-01-06T10:45:50;8.00;;;4.60;;
40945;SDS011;55635;50.264;11.918;2024-01-06T10:48:32;4.22;;;3.72;;
40945;SDS011;55635;50.264;11.918;2024-01-06T10:51:15;8.90;;;3.78;;
40945;SDS011;55635;50.264;11.918;2024-01-06T10:53:57;6.40;;;3.05;;
40945;SDS011;55635;50.264;11.918;2024-01-06T10:56:41;6.22;;;3.47;;
40945;SDS011;55635;50.264;11.918;2024-01-06T10:59:23;5.47;;;3.22;;
40945;SDS011;55635;50.264;11.918;2024-01-06T11:02:06;5.15;;;2.97;;
40945;SDS011;55635;50.264;11.918;2024-01-06T11:04:50;6.20;;;3.17;;
40945;SDS011;55635;50.264;11.918;2024-01-06T11:07:31;5.05;;;3.60;;
40945;SDS011;55635;50.264;11.918;2024-01-06T11:10:16;6.25;;;3.67;;
40945;SDS011;55635;50.264;11.918;2024-01-06T11:13:08;5.95;;;3.58;;
40945;SDS011;55635;50.264;11.918;2024-01-06T11:15:52;5.70;;;3.78;;
40945;SDS011;55635;50.264;11.918;2024-01-06T11:21:21;6.80;;;3.70;;
40945;SDS011;55635;50.264;11.918;2024-01-06T11:24:18;4.90;;;3.65;;
40945;SDS011;55635;50.264;11.918;2024-01-06T11:27:04;4.72;;;3.53;;
40945;SDS011;55635;50.264;11.918;2024-01-06T11:29:52;5.63;;;3.50;;
40945;SDS011;55635;50.264;11.918;2024-01-06T11:32:36;5.47;;;2.90;;
40945;SDS011;55635;50.264;11.918;2024-01-06T11:35:21;10.07;;;4.10;;
40945;SDS011;55635;50.264;11.918;2024-01-06T11:38:06;4.47;;;3.20;;
40945;SDS011;55635;50.264;11.918;2024-01-06T11:40:47;2.88;;;2.53;;
40945;SDS011;55635;50.264;11.918;2024-01-06T11:43:28;4.70;;;2.63;;
40945;SDS011;55635;50.264;11.918;2024-01-06T11:46:11;2.75;;;1.27;;
40945;SDS011;55635;50.264;11.918;2024-01-06T11:48:52;3.10;;;1.17;;
40945;SDS011;55635;50.264;11.918;2024-01-06T11:51:33;2.30;;;2.15;;
40945;SDS011;55635;50.264;11.918;2024-01-06T11:54:15;35.05;;;24.83;;
40945;SDS011;55635;50.264;11.918;2024-01-06T11:56:56;52.20;;;24.40;;
40945;SDS011;55635;50.264;11.918;2024-01-06T11:59:37;3.25;;;1.48;;
40945;SDS011;55635;50.264;11.918;2024-01-06T12:02:19;93.82;;;33.30;;
40945;SDS011;55635;50.264;11.918;2024-01-06T12:05:02;69.15;;;22.33;;
40945;SDS011;55635;50.264;11.918;2024-01-06T12:07:59;173.23;;;48.25;;
40945;SDS011;55635;50.264;11.918;2024-01-06T12:10:44;139.50;;;43.83;;
40945;SDS011;55635;50.264;11.918;2024-01-06T12:13:25;4.40;;;2.65;;
40945;SDS011;55635;50.264;11.918;2024-01-06T12:16:07;12.70;;;4.03;;
40945;SDS011;55635;50.264;11.918;2024-01-06T12:18:49;61.83;;;18.60;;
40945;SDS011;55635;50.264;11.918;2024-01-06T12:21:30;174.43;;;46.33;;
40945;SDS011;55635;50.264;11.918;2024-01-06T12:24:17;233.70;;;64.45;;
40945;SDS011;55635;50.264;11.918;2024-01-06T12:27:00;395.77;;;114.75;;
40945;SDS011;55635;50.264;11.918;2024-01-06T12:29:41;177.77;;;56.53;;
40945;SDS011;55635;50.264;11.918;2024-01-06T12:32:22;76.82;;;25.50;;
40945;SDS011;55635;50.264;11.918;2024-01-06T12:35:05;348.20;;;106.15;;
40945;SDS011;55635;50.264;11.918;2024-01-06T12:37:46;120.32;;;35.75;;
40945;SDS011;55635;50.264;11.918;2024-01-06T12:40:27;91.72;;;28.52;;
40945;SDS011;55635;50.264;11.918;2024-01-06T12:43:08;441.85;;;168.50;;
40945;SDS011;55635;50.264;11.918;2024-01-06T12:45:50;167.65;;;63.78;;
40945;SDS011;55635;50.264;11.918;2024-01-06T12:48:32;105.15;;;37.28;;
40945;SDS011;55635;50.264;11.918;2024-01-06T12:51:14;75.72;;;31.52;;
40945;SDS011;55635;50.264;11.918;2024-01-06T12:53:55;109.70;;;40.20;;
40945;SDS011;55635;50.264;11.918;2024-01-06T12:56:36;53.20;;;20.73;;
40945;SDS011;55635;50.264;11.918;2024-01-06T12:59:17;131.88;;;53.67;;
40945;SDS011;55635;50.264;11.918;2024-01-06T13:01:58;42.60;;;22.10;;
40945;SDS011;55635;50.264;11.918;2024-01-06T13:04:40;15.25;;;8.45;;
40945;SDS011;55635;50.264;11.918;2024-01-06T13:07:21;8.68;;;6.10;;
40945;SDS011;55635;50.264;11.918;2024-01-06T13:10:02;8.10;;;5.70;;
40945;SDS011;55635;50.264;11.918;2024-01-06T13:12:44;2.63;;;2.08;;
40945;SDS011;55635;50.264;11.918;2024-01-06T13:15:25;2.58;;;2.20;;
40945;SDS011;55635;50.264;11.918;2024-01-06T13:18:06;2.40;;;1.88;;
40945;SDS011;55635;50.264;11.918;2024-01-06T13:20:47;2.30;;;2.10;;
40945;SDS011;55635;50.264;11.918;2024-01-06T13:23:29;2.22;;;2.03;;
40945;SDS011;55635;50.264;11.918;2024-01-06T13:26:11;1.88;;;1.77;;
40945;SDS011;55635;50.264;11.918;2024-01-06T13:28:52;2.67;;;2.25;;
40945;SDS011;55635;50.264;11.918;2024-01-06T13:31:33;2.08;;;1.67;;
40945;SDS011;55635;50.264;11.918;2024-01-06T13:34:15;7.65;;;4.78;;
40945;SDS011;55635;50.264;11.918;2024-01-06T13:36:57;1.83;;;1.25;;
40945;SDS011;55635;50.264;11.918;2024-01-06T13:39:38;5.68;;;2.80;;
40945;SDS011;55635;50.264;11.918;2024-01-06T13:42:19;2.20;;;1.70;;
40945;SDS011;55635;50.264;11.918;2024-01-06T13:45:01;9.60;;;4.50;;
40945;SDS011;55635;50.264;11.918;2024-01-06T13:47:44;1.65;;;1.35;;
40945;SDS011;55635;50.264;11.918;2024-01-06T13:50:25;1.45;;;1.17;;
40945;SDS011;55635;50.264;11.918;2024-01-06T13:53:06;4.07;;;1.83;;
40945;SDS011;55635;50.264;11.918;2024-01-06T13:55:47;2.58;;;1.50;;
40945;SDS011;55635;50.264;11.918;2024-01-06T13:58:29;1.55;;;1.40;;
40945;SDS011;55635;50.264;11.918;2024-01-06T14:01:10;2.38;;;1.48;;
40945;SDS011;55635;50.264;11.918;2024-01-06T14:03:51;4.78;;;3.72;;
40945;SDS011;55635;50.264;11.918;2024-01-06T14:06:37;6.75;;;4.13;;
40945;SDS011;55635;50.264;11.918;2024-01-06T14:09:19;2.60;;;2.13;;
40945;SDS011;55635;50.264;11.918;2024-01-06T14:12:01;5.32;;;4.07;;
40945;SDS011;55635;50.264;11.918;2024-01-06T14:14:45;2.33;;;1.80;;
40945;SDS011;55635;50.264;11.918;2024-01-06T14:17:26;2.00;;;1.30;;
40945;SDS011;55635;50.264;11.918;2024-01-06T14:20:07;2.30;;;1.55;;
40945;SDS011;55635;50.264;11.918;2024-01-06T14:22:49;2.40;;;1.80;;
40945;SDS011;55635;50.264;11.918;2024-01-06T14:25:30;1.90;;;1.70;;
40945;SDS011;55635;50.264;11.918;2024-01-06T14:28:11;2.58;;;1.92;;
40945;SDS011;55635;50.264;11.918;2024-01-06T14:30:52;2.20;;;1.77;;
40945;SDS011;55635;50.264;11.918;2024-01-06T14:33:34;3.15;;;2.70;;
40945;SDS011;55635;50.264;11.918;2024-01-06T14:36:15;3.22;;;2.70;;
40945;SDS011;55635;50.264;11.918;2024-01-06T14:38:56;5.25;;;3.78;;
40945;SDS011;55635;50.264;11.918;2024-01-06T14:41:38;6.05;;;3.58;;
40945;SDS011;55635;50.264;11.918;2024-01-06T14:44:18;8.52;;;4.72;;
40945;SDS011;55635;50.264;11.918;2024-01-06T14:47:00;7.53;;;4.40;;
40945;SDS011;55635;50.264;11.918;2024-01-06T14:49:41;10.85;;;5.65;;
40945;SDS011;55635;50.264;11.918;2024-01-06T14:52:22;5.22;;;4.32;;
40945;SDS011;55635;50.264;11.918;2024-01-06T14:55:03;5.13;;;4.63;;
40945;SDS011;55635;50.264;11.918;2024-01-06T14:57:45;5.57;;;4.43;;
40945;SDS011;55635;50.264;11.918;2024-01-06T15:00:26;6.30;;;4.13;;
40945;SDS011;55635;50.264;11.918;2024-01-06T15:03:07;5.00;;;3.88;;
40945;SDS011;55635;50.264;11.918;2024-01-06T15:05:48;7.38;;;4.60;;
40945;SDS011;55635;50.264;11.918;2024-01-06T15:08:30;6.95;;;4.45;;
40945;SDS011;55635;50.264;11.918;2024-01-06T15:11:11;5.72;;;4.40;;
40945;SDS011;55635;50.264;11.918;2024-01-06T15:13:52;12.88;;;7.55;;
40945;SDS011;55635;50.264;11.918;2024-01-06T15:16:33;11.05;;;6.53;;
40945;SDS011;55635;50.264;11.918;2024-01-06T15:19:14;6.72;;;4.85;;
40945;SDS011;55635;50.264;11.918;2024-01-06T15:21:55;5.03;;;4.50;;
40945;SDS011;55635;50.264;11.918;2024-01-06T15:24:36;4.38;;;3.28;;
40945;SDS011;55635;50.264;11.918;2024-01-06T15:27:18;11.95;;;6.22;;
40945;SDS011;55635;50.264;11.918;2024-01-06T15:29:59;6.32;;;4.18;;
40945;SDS011;55635;50.264;11.918;2024-01-06T15:32:41;4.35;;;3.00;;
40945;SDS011;55635;50.264;11.918;2024-01-06T15:35:23;4.40;;;3.33;;
40945;SDS011;55635;50.264;11.918;2024-01-06T15:38:04;4.32;;;2.70;;
40945;SDS011;55635;50.264;11.918;2024-01-06T15:40:45;3.67;;;3.38;;
40945;SDS011;55635;50.264;11.918;2024-01-06T15:43:27;5.18;;;3.20;;
40945;SDS011;55635;50.264;11.918;2024-01-06T15:46:07;8.23;;;4.18;;
40945;SDS011;55635;50.264;11.918;2024-01-06T15:48:49;5.45;;;3.38;;